Extreme weather reports worldwide

Atmospheric pressure

Low pressure

Station
 
Location
 
Name
 
Wind
Knots
Gust
Knots
Vis
SM
Temp/Dew
C
Baro
inHg
METAR
 
NZSP AQ South Pole Station Airport 7 3.73 -48/ 28.56 NZSP 251750Z 03007KT 6000 IC BR FEW015 SCT100 M48/ A2856 RMK SKWY WNDS ESTMD CLN AIR 04003KT ALL WNDS GRID SDG/HDF
TNM SCRM Isla Rey Jorge, AQ Teniente Rodolfo Marsh Martin Base 20 6.21 -1/-3 28.97 SCRM 251800Z 11020KT 9999 SCT030 OVC040 M01/M03 Q0981 NOSIG
ENUG 25 5/1 29.06 ENUG 251820Z AUTO 28025KT 9999NDV BKN015/// 05/01 Q0984 W///S5
UAK BGBW Narsarsuaq, GL Narsarsuaq Airport 11 6.21 5/-11 29.06 BGBW 251750Z 07011KT 9999 FEW070 BKN120 05/M11 Q0984
HFT ENHF Hammerfest, NO Hammerfest Airport 22 6.21 3/1 29.11 ENHF 251820Z 24022KT 9999 -SHRA SCT017 BKN025 03/01 Q0986 RMK WIND 1254FT 27029KT

Station
 
Location
 
Name
 
Wind
Knots
Gust
Knots
Vis
SM
Temp/Dew
C
Baro
inHg
METAR
 
BVG ENBV Berlevåg, NO Berlevåg Airport 22 6.21 -1/-3 29.11 ENBV 251820Z 21022KT 9999 VCSH FEW010 SCT057 BKN072 M01/M03 Q0986
MEH ENMH Mehamn, NO Mehamn Airport 17 6.21 2/0 29.11 ENMH 251750Z 20017KT 9999 -SHRA BKN035 02/00 Q0986
HVG ENHV Honningsvåg, NO Valan Airport 12 6.21 4/1 29.11 ENHV 251750Z 22012KT 9999 -RA SC016 BKN021 04/01 Q0986
NZFX 9 6.21 -23/-27 29.17 NZFX 251755Z 06009KT 9999 FEW120 FEW150 FEW200 M23/M27 A2917 RMK SLP872 LSR12 GRID23009KT SDG/HDG
VAW ENSS Vardø, NO Vardø Airport, Svartnes 27 6.21 -3/-4 29.17 ENSS 251820Z 23027KT 9999 DRSN FEW022 BKN068 M03/M04 Q0988 RMK WIND 500FT 24036KT
LKL ENNA Lakselv, NO Banak Airport 8 6.21 5/-1 29.17 ENNA 251820Z 28008KT 220V350 CAVOK 05/M01 Q0988 RMK WIND 1800FT 28024KT
HAA ENHK Hasvik, NO Hasvik Airport 16 27 6.21 4/1 29.17 ENHK 251820Z 27016G27KT 9999 VCSH FEW015 SCT036 BKN045 04/01 Q0988
ALF ENAT Alta, NO Alta Airport 7 6.21 5/-2 29.17 ENAT 251820Z 26007KT 230V300 CAVOK 05/M02 Q0988 RMK WIND 700FT 27017KT
YQY CYQY Sydney, CA Sydney / J.A. Douglas McCurdy Airport 16 23 15 5/4 29.19 CYQY 251800Z 25016G23KT 15SM BKN013 BKN055 05/04 A2919 RMK SC5SC2 SLP889
SOJ ENSR Sørkjosen, NO Sørkjosen Airport 8 6.21 5/-1 29.20 ENSR 251820Z 29008KT 9999 FEW020 SCT030 05/M01 Q0989 RMK WIND 1119FT 27017KT
KKN ENKR Kirkenes, NO Kirkenes Airport (Høybuktmoen) 13 6.21 -4/-6 29.20 ENKR 251820Z 18013KT 9999 BKN011 OVC021 M04/M06 Q0989 RMK WIND 731FT 20020KT
FSP LFVP Saint-Pierre, PM St Pierre Airport 25 3.73 2/2 29.20 LFVP 251800Z 16025KT 6000 -RA FEW004 OVC005 02/02 Q0989 NOSIG
GOH BGGH Nuuk, GL Godthaab / Nuuk Airport 10 6.21 -5/-8 29.20 BGGH 251750Z 36010KT 9999 SKC M05/M08 Q0989
VDS ENVD Vadsø, NO Vadsø Airport 17 6.21 -2/-4 29.20 ENVD 251720Z 22017KT 9999 FEW022 SCT082 M02/M04 Q0989
YJT CYJT Stephenville, CA Stephenville Airport 7 2 1/0 29.22 CYJT 251800Z 05007KT 2SM -SN SCT012 OVC022 01/M00 A2922 RMK SF3SC5 /S02/ SLP899
CWFD 6 -10/-11 29.22 CWFD 251800Z AUTO 19006KT ////SM OVC005 M10/M11 A2922
CWZZ 16 -11/-11 29.23 CWZZ 251800Z AUTO 02016KT ////SM FEW004 BKN010 OVC026 M11/M11 A2923
KRN ESNQ Kiruna, SE Kiruna Airport 3 6.21 0/-2 29.23 ESNQ 251820Z AUTO 16003KT 120V220 9999 NCD M00/M02 Q0990
IVL EFIV Ivalo, FI Ivalo Airport 14 6.21 -1/-2 29.23 EFIV 251820Z AUTO 22014KT 9999 OVC006 M01/M02 Q0990
ENF EFET Enontekio, FI Enontekio Airport 3 6.21 -6/-7 29.23 EFET 251820Z AUTO 22003KT 190V280 9999 FEW002 M06/M07 Q0990
YPS CYPD Port Hawkesbury, CA Port Hawkesbury Airport 15 27 9 1/0 29.24 CYPD 251808Z AUTO 29015G27KT 9SM -RA BKN006 BKN010 OVC028 01/00 A2924 RMK LTNG DIST SE SLP907
TOS ENTC Tromsø, NO Tromsø Airport 4 6.21 3/1 29.26 ENTC 251820Z 23004KT 190V270 9999 FEW016 BKN023 03/01 Q0991 TEMPO SHRA BKN014 RMK WIND 2600FT 30018KT
BDU ENDU MÃ¥lselv, NO Bardufoss Airport 2 6.21 2/1 29.26 ENDU 251820Z 29002KT 9999 -SHRA FEW015 SCT025 BKN035 02/01 Q0991 RMK WIND 1100FT 26009KT WIND 2200FT 28020KT
KTT EFKT Kittilä, FI Kittilä Airport 3 6.21 -1/-1 29.26 EFKT 251820Z AUTO 20003KT 160V230 9999 SCT003 M01/M01 Q0991
YPE CYPE Peace River, CA Peace River Airport 11 15 -2/-4 29.27 CYPE 251800Z 28011KT 15SM VCSH SCT013 BKN150 M02/M04 A2927 RMK SC4AC2 VCSH SE-S VIS 4 SLP944
YGR CYGR ÃŽles-de-la-Madeleine, CA ÃŽles-de-la-Madeleine Airport 21 27 1 -1/-2 29.27 CYGR 251800Z 35021G27KT 1SM -SN OVC005 M01/M02 A2927 RMK SN5ST3 /S03/ SLP912
CWVD 5 -13/-16 29.28 CWVD 251808Z AUTO 36005KT ////SM BKN006 BKN011 BKN021 M13/M16 A2928
YDQ CYDQ Dawson Creek, CA Dawson Creek Airport 10 9 3/-6 29.28 CYDQ 251800Z AUTO 26010KT 9SM FEW240 03/M06 A2928 RMK SLP947
PJA ESUP SE Pajala Airport 9 6.21 2/1 29.29 ESUP 251820Z AUTO 23009KT 9999 NCD 02/01 Q0992
GEV ESNG Gällivare, SE Gällivare Airport 3 6.21 0/-2 29.29 ESNG 251820Z 29003KT 240V360 CAVOK M00/M02 Q0992
EVE ENEV Evenes, NO Harstad/Narvik Airport, Evenes 7 6.21 4/3 29.29 ENEV 251820Z 21007KT 9999 -RA BKN007 04/03 Q0992 RMK WIND 1400FT 24014KT
ANX ENAN Andenes, NO Andøya Airport 7 6.21 4/2 29.29 ENAN 251820Z 29007KT 9999 VCSH SCT025 04/02 Q0992
YDF CYDF Deer Lake, CA Deer Lake Airport 8 3 1/0 29.29 CYDF 251800Z 04008KT 3SM -SN OVC016 01/M00 A2929 RMK SC8 /S01/ SLP920
LKN ENLK Leknes, NO Leknes Airport 3 4.97 4/4 29.29 ENLK 251750Z 04003KT 350V070 8000 VCFG -DZ FEW005 SCT012 BKN020 04/04 Q0992
YZH CYZH Slave Lake, CA Slave Lake Airport 5 9 -3/-6 29.30 CYZH 251800Z AUTO 10005KT 9SM OVC048 M03/M06 A2930 RMK SLP960
YXJ CYXJ Fort St.John, CA Fort St John Airport 6 5 -1/-2 29.30 CYXJ 251800Z 28006KT 5SM -SN OVC034 M01/M02 A2930 RMK SC8 SLP956
YCQ CYCQ Chetwynd, CA Chetwynd Airport 9 15 2/-4 29.31 CYCQ 251800Z 22009KT 15SM FEW028 SCT035 BKN140 BKN160 BKN190 02/M04 A2931 RMK SC1SC3AC2AS1CI1 SC TR VIRGA N-SE DIST PCPN MTS S+W SLP953
SYA PASY Shemya, US Eareckson Air Station 17 7 1/0 29.31 PASY 251756Z 18017KT 7SM BKN012 OVC020 01/01 A2931 RMK AO2A SNE1740 SLP929 60004 T00130006 10025 20001 57010 RVRNO PNO FZRANO $
CWOB 6 -13/-16 29.32 CWOB 251823Z AUTO 08006KT ////SM BKN024 BKN029 OVC033 M13/M16 A2932
ENUN 12 6/5 29.32 ENUN 251820Z AUTO 28012KT 9999NDV SCT008/// BKN019/// 06/05 Q0993 W06/S/
SKN ENSK Hadsel, NO Stokmarknes Skagen Airport 1 6.21 3/3 29.32 ENSK 251820Z VRB01KT 9999 RA FEW010 SCT016 BKN020 03/03 Q0993
RET ENRS NO Røst Airport 12 6.21 5/4 29.32 ENRS 251820Z 21012KT 9999 VCSH FEW010 BKN033 05/04 Q0993
RVN EFRO Rovaniemi, FI Rovaniemi Airport 12 0.81 0/0 29.32 EFRO 251820Z AUTO 22012KT 1300 R21/2000N BCFG OVC001 00/00 Q0993
MMK ULMM Murmansk, RU Murmansk Airport 4 6.21 -6/-9 29.32 ULMM 251800Z 15002MPS 9999 BKN013CB M06/M09 Q0993 R13/450140 NOSIG RMK QFE738
YZU CYZU Whitecourt, CA Whitecourt Airport 5 15 1/-6 29.32 CYZU 251800Z 34005KT 15SM FEW110 FEW210 01/M06 A2932 RMK AC1CI1 CI TR SLP962

High pressure

Station
 
Location
 
Name
 
Wind
Knots
Gust
Knots
Vis
SM
Temp/Dew
C
Baro
inHg
METAR
 
MYP UTAM Mary, TM Mary Airport 8 3.73 -3/-9 30.71 UTAM 251800Z 02008KT 6000 OVC066 M03/M09 Q1040 R88/CLRD70 NOSIG
NCU UTNN Nukus, UZ Nukus Airport 2 6.21 -11/-17 30.71 UTNN 251800Z 19002KT CAVOK M11/M17 Q1040 R33/CLRD60 NOSIG
UGC UTNU Urgench, UZ Urgench Airport 2 6.21 -11/-16 30.71 UTNU 251800Z 31002KT CAVOK M11/M16 Q1040 R31/CLRD70 NOSIG
KZO UAOO Kzyl-Orda, KZ Kzyl-Orda Southwest Airport 6 6.21 -21/-24 30.68 UAOO 251800Z 21003MPS 9999 BKN029 M21/M24 Q1039 NOSIG RMK QFE767/1023
TAZ UTAT DaÅŸoguz, TM DaÅŸoguz Airport 2 6.21 -11/-14 30.68 UTAT 251800Z 18002KT CAVOK M11/M14 Q1039 R26/CLRD70 NOSIG

Station
 
Location
 
Name
 
Wind
Knots
Gust
Knots
Vis
SM
Temp/Dew
C
Baro
inHg
METAR
 
LPB SLLP La Paz / El Alto, BO El Alto International Airport 11 6.21 17/-1 30.65 SLLP 251800Z 06011KT 010V100 9999 SCT020 FEW023CB 17/M01 Q1038
CRZ UTAV Türkmenabat, TM Turkmenabat Airport 4 6.21 -6/-19 30.62 UTAV 251800Z 01004KT CAVOK M06/M19 Q1037 R31/CLRD70 NOSIG
NVI UTSA Navoi, UZ Navoi Airport 4 6.21 -9/-18 30.62 UTSA 251800Z 02004KT 9999 NSC M09/M18 Q1037 R07/CLRD70 NOSIG
BHK UTSB Bukhara, UZ Bukhara Airport 4 6.21 -6/-15 30.62 UTSB 251800Z 02004KT CAVOK M06/M15 Q1037 R01/CLRD70 NOSIG
TAS UTTT Tashkent, UZ Tashkent International Airport 6 6.21 -10/-17 30.62 UTTT 251800Z 05006KT CAVOK M10/M17 Q1037 R08R/CLRD70 NOSIG
CKT OIMC Sarakhs, IR Sarakhs Airport 4 -1/-11 30.59 OIMC 251800Z AUTO 08004KT //// // ////// M01/M11 Q1036
GBT OING Gorgan, IR Gorgan Airport 4 6.21 0/-3 30.59 OING 251800Z 08004KT CAVOK 00/M03 Q1036
ANS SPHY Andahuaylas, PE Andahuaylas Airport 13 6.21 14/9 30.59 SPHY 251800Z 02013KT 9999 VCSH SCT012TCU SCT060 14/09 Q1036 RMK BIRD HAZARD RWY03/21 PP000
JUL SPJL Juliaca, PE Inca Manco Capac International Airport 10 6.21 15/1 30.59 SPJL 251800Z 12010KT 9999 BKN020 15/01 Q1036 RMK PP000
CIT UAII Shymkent, KZ Shymkent Airport 8 6.21 -14/-20 30.59 UAII 251800Z 18004MPS CAVOK M14/M20 Q1036 R28/950550 NOSIG RMK QFE739/0986
LLK UBBL Lankaran, AZ Lankaran International Airport 4 6.21 -1/-1 30.59 UBBL 251800Z 32004KT 9999 OVC024 M01/M01 Q1036 R33/290050 NOSIG RMK MT OP
ASB UTAA Ashgabat, TM Ashgabat International Airport 10 6.21 -4/-13 30.59 UTAA 251800Z 11010KT 9999 FEW049 SCT099 M04/M13 Q1036 R88/CLRD70 NOSIG
LIMH IT Pian Rosà 10 6.21 -5/-22 30.56 LIMH 251755Z 22010KT CAVOK M05/M22 Q1035 RMK SKC MON LIB VAL S FOSCHIA VIS MIN 9999
LIVC 6 8/-23 30.56 LIVC 251755Z AUTO 17006KT //// 08/M23 Q1035
ORU SLOR Oruro, BO Juan Mendoza Airport 9 6.21 22/4 30.56 SLOR 251800Z 08009KT 9999 SCT025 22/04 Q1035
ZTU UBBY Zaqatala, AZ Zaqatala International Airport 4 6.21 -3/-5 30.56 UBBY 251800Z 07004KT 9999 SCT040 M03/M05 Q1035 R33/////// NOSIG RMK MT OP
YLV UBEE Yevlakh, AZ Yevlakh Airport 5 6.21 -3/-5 30.56 UBEE 251800Z 26005KT CAVOK M03/M05 Q1035 R30/CLRD// NOSIG
BUS UGSB Batumi, GE Batumi International Airport 7 6.21 6/4 30.56 UGSB 251800Z 22007KT 9999 FEW017 BKN030 06/04 Q1035 R13/29//55 NOSIG
KRW UTAK Krasnovodsk, TM Turkmenbashi Airport 14 6.21 0/-6 30.56 UTAK 251800Z 13014KT 9999 OVC039 M00/M06 Q1035 R16R/CLRD70 NOSIG
UTFN 2 6.21 -4/-16 30.56 UTFN 251800Z VRB02KT 9999 NSC M04/M16 Q1035 R28/CLRD70 NOSIG
UTSK 8 6.21 -6/-18 30.56 UTSK 251800Z 35008KT CAVOK M06/M18 Q1035 R16/CLRD70
LTCB 3 6.21 6/1 30.53 LTCB 251750Z 22003KT 9999 SCT030 06/01 Q1034
SZF LTFH Samsun, TR Samsun Çarşamba Airport 4 6.21 5/1 30.53 LTFH 251750Z 18004KT 9999 FEW020 BKN028 BKN100 05/01 Q1034 NOSIG
LIVD Toblach (Dobbiaco) (BZ), IT Dobbiaco - Toblach 6.21 3/-3 30.53 LIVD 251755Z /////KT CAVOK 03/M03 Q1034 RMK SKC VIS MIN 9999 BLU
NSH OINN IR Noshahr Airport 4 6.21 4/0 30.53 OINN 251800Z 13004KT 9999 BKN028 04/M00 Q1034
SRY OINZ Sari, IR Dasht-e Naz Airport 4 6.21 0/-3 30.53 OINZ 251800Z 11004KT CAVOK M00/M03 Q1034
PFQ OITP Parsabad, IR Parsabade Moghan Airport 4 6.21 -1/-4 30.53 OITP 251800Z 31004KT 9999 SCT030 BKN080 M01/M04 Q1034
SCO UATE Aktau, KZ Aktau Airport 10 6.21 -8/-12 30.53 UATE 251800Z 12005MPS 9999 SCT013 BKN026 M08/M12 Q1034 R12/1///65 NOSIG RMK QFE773/1031
KUT UGKO Kutaisi, GE Kopitnari Airport 4 6.21 3/2 30.53 UGKO 251800Z 32004KT 9999 BKN070 03/02 Q1034 NOSIG
SMV LSZS CH Samedan Airport 2 6.21 -1/-6 30.53 LSZS 251820Z AUTO 22002KT CAVOK M01/M06 Q1034
TZX LTCG Trabzon, TR Trabzon International Airport 6 6.21 7/2 30.53 LTCG 251820Z 31006KT 280V010 9999 BKN035 07/02 Q1034 NOSIG RMK RWY29 30006KT 270V330
KCO LTBQ TR Cengiz Topel Airport 7 6.21 6/4 30.50 LTBQ 251750Z 03007KT 9999 FEW030 06/04 Q1033 NOSIG
MZR OAMS AF Mazar I Sharif Airport 10 6.21 -1/-15 30.50 OAMS 251750Z 26010KT 9999 OVC050 M01/M15 Q1033 BLU BLU
LIRK 9 5/-5 30.50 LIRK 251755Z AUTO 11009KT //// 05/M05 Q1033
LIVP 4 6.21 3/-11 30.50 LIVP 251755Z 01004KT CAVOK 03/M11 Q1033 RMK SKC MON LIB VAL NIL VIS MIN 9999
LIVR 4 6.21 2/-6 30.50 LIVR 251755Z 34004KT CAVOK 02/M06 Q1033 RMK SKC MON LIB VIS MIN 9999
BOJ LBBG Burgas, BG Burgas Airport 7 3.73 5/5 30.50 LBBG 251800Z 06007KT 6000 FEW045 05/05 Q1033 NOSIG
BES LFRB Brest/Guipavas, FR Brest Bretagne Airport 4 6.21 8/4 30.50 LFRB 251800Z AUTO 35004KT CAVOK 08/04 Q1033 NOSIG
LDV LFRJ Landivisiau, FR Landivisiau Air Base 5 6.21 7/4 30.50 LFRJ 251800Z AUTO 34005KT CAVOK 07/04 Q1033 NOSIG
LFRL Lanvéoc/Poulmic, FR Lanvéoc-Poulmic Air Base 6 6.21 8/4 30.50 LFRL 251800Z AUTO 01006KT 9999 FEW025 08/04 Q1033 NOSIG
LAI LFRO Lannion, FR Lannion-Côte de Granit Airport 5 6.21 8/6 30.50 LFRO 251800Z AUTO 32005KT CAVOK 08/06 Q1033
SMA LPAZ Vila do Porto, PT Santa Maria Airport 11 6.21 14/10 30.50 LPAZ 251800Z 19011KT 9999 SCT024 BKN042 14/10 Q1033
LRCT Câmpia Turzii, RO Câmpia Turzii Air Base 3 6.21 5/4 30.50 LRCT 251800Z 29003KT 9999 SKC 05/04 Q1033 BLU BLU
KLM OINE Kalaleh, IR Kalaleh Airport 0 6.21 -1/-2 30.50 OINE 251800Z 00000KT CAVOK M01/M02 Q1033
RZR OINR IR Ramsar Airport 0 6.21 5/1 30.50 OINR 251800Z 00000KT 9999 SCT025 OVC080 05/01 Q1033